Tiempo atmosférico en la estación meteorológica de Medina De Rioseco, Valladolid (731 m.)



Fecha
DESCASC
Temp. máxima en grados centígrados (hora)
DESCASC
Temp. mínima en grados centígrados (hora)
DESCASC
Temp. media en grados centígrados
DESCASC
Racha de viento máxima en m/sg (hora)
DESCASC
Velocidad máxima media en intervalos de 10 minutos(hora)
DESCASC
Precipitaciones diarias en mm
DESCASC
Precipitaciones de 00:00 a 06:00 en mm
DESCASC
Precipitaciones de 06:00 a 12:00 en mm
DESCASC
Precipitaciones de 12:00 a 18:00 en mm
DESCASC
Precipitaciones de 18:00 a 24:00 en mm
DESCASC
04-03-2021 17.2 (15:50) 2.6 (08:10) 9.9 6.94 (15:20) 3.61 (20:30) 0 0 0 0 0
03-03-2021 16.6 (17:10) 5 (06:30) 10.8 5.56 (09:40) 3.61 (09:40) 0 0 0 0 0
02-03-2021 14.2 (17:10) 6.1 (04:20) 10.1 10 (04:00) 5.28 (04:00) 1 0 0 0 1
01-03-2021 13.9 (15:50) 4.8 (00:00) 9.3 16.67 (09:00) 9.72 (08:50) 4.6 0.2 4.4 0 0
28-02-2021 12.7 (16:20) 0.8 (00:00) 6.7 10.28 (04:10) 5 (00:30) 0 0 0 0 0
27-02-2021 14 (16:00) 4 (00:00) 9 10 (23:30) 5.83 (23:30) 0 0 0 0 0
26-02-2021 14 (16:00) 5.7 (00:00) 9.8 11.11 (01:20) 6.67 (01:20) 0 0 0 0 0
25-02-2021 13.2 (15:30) 6.2 (00:00) 9.7 9.17 (08:50) 5.83 (04:20) 0 0 0 0 0
24-02-2021 15.9 (16:50) 3.8 (00:00) 9.8 10 (14:20) 5.56 (14:20) 0 0 0 0 0
23-02-2021 14.1 (17:20) -2.2 (-00:0) 6 8.33 (16:00) 4.72 (23:40) 0 0 0 0 0
22-02-2021 10.4 (17:30) 0.4 (00:00) 5.4 8.33 (01:10) 5.28 (01:00) 0.4 0.4 0 0 0
21-02-2021 12.4 (12:30) 3 (00:00) 7.7 11.39 (13:00) 6.94 (12:50) 8.4 0 0 2 6.4
20-02-2021 14.8 (16:00) 3.8 (00:00) 9.3 12.5 (15:00) 7.5 (15:10) 0 0 0 0 0
19-02-2021 15.1 (15:00) 7.3 (00:00) 11.2 12.78 (15:10) 8.89 (15:10) 0.8 0.8 0 0 0
18-02-2021 12.8 (15:20) 5.5 (00:00) 9.2 13.61 (13:00) 9.17 (12:40) 2 0 0 0.2 1.8
17-02-2021 12.8 (17:00) 4.7 (00:00) 8.8 7.5 (12:20) 5.28 (16:30) 4.8 4.8 0 0 0
16-02-2021 12.6 (12:50) 1.6 (00:00) 7.1 13.61 (12:00) 8.89 (12:40) 1.4 0 0 0 1.4
15-02-2021 16.7 (16:00) 2.3 (00:00) 9.5 6.67 (10:40) 4.17 (10:10) 0 0 0 0 0
14-02-2021 15 (16:10) -0.3 (00:00) 7.3 5.83 (12:40) 3.33 (16:30) 0 0 0 0 0
13-02-2021 13.4 (16:00) 1 (00:00) 7.2 6.67 (11:00) 4.17 (11:00) 0 0 0 0 0
12-02-2021 13.1 (15:40) 4 (00:00) 8.6 12.78 (12:00) 7.78 (02:00) 4.6 4.6 0 0 0
11-02-2021 14.2 (15:50) 6.3 (00:00) 10.3 10.56 (15:00) 6.67 (15:00) 0 0 0 0 0
10-02-2021 10.5 (16:20) 1.9 (00:00) 6.2 18.06 (03:00) 8.61 (03:00) 1 1 0 0 0
09-02-2021 7.3 (10:00) 3.7 (00:00) 5.5 17.22 (11:40) 11.11 (11:50) 10.2 1.6 4.6 3.4 0.6
08-02-2021 7.9 (13:00) 4 (00:00) 6 14.72 (13:00) 9.17 (12:00) 0.8 0.4 0 0.4 0
07-02-2021 6.4 (14:50) 0.9 (00:00) 3.7 11.94 (16:00) 7.78 (15:30) 1 0 0 0.8 0.2
06-02-2021 8.7 (01:20) 4.3 (00:00) 6.5 11.11 (08:10) 6.11 (08:10) 3.8 0.6 3 0.2 0
05-02-2021 12.2 (16:30) 4.2 (00:00) 8.2 15.28 (19:00) 7.5 (20:50) 4.6 3 1.6 0 0
04-02-2021 8.4 (01:20) 5.2 (00:00) 6.8 6.39 (00:20) 3.89 (00:40) 12.8 0 3.2 8.8 0.8

Gráficas

Temp. máximas Temp. mínimas Temp. medias Precipitaciones Rachas de viento máximas Velocidades máximas media en intervalos de 10 minutos

Datos horarios

Fecha y hora oficial Temperatura (ºC) Velocidad del viento (km/h) Dirección del viento Racha (km/h) Dirección de racha Precipitación (mm) Presión (hPa) Tendencia (hPa) Humedad (%)
2021-03-05 23:00:00 5.6 15 Este 37 Este 0 -- -- 84
2021-03-05 22:00:00 6.8 24 Este 44 Este 0 -- -- 81
2021-03-05 21:00:00 7.6 21 Este 37 Este 0 -- -- 78
2021-03-05 20:00:00 8.9 15 Este 30 Este 0 -- -- 73
2021-03-05 19:00:00 10.9 14 Este 37 Este 0 -- -- 65
2021-03-05 18:00:00 12.7 20 Este 40 Este 0 -- -- 54
2021-03-05 17:00:00 13.7 19 Este 40 Este 0 -- -- 50
2021-03-05 16:00:00 14.1 20 Este 35 Este 0 -- -- 51
2021-03-05 15:00:00 13.9 18 Este 34 Este 0 -- -- 62
2021-03-05 14:00:00 13.5 17 Este 42 Este 0 -- -- 66
2021-03-05 13:00:00 12.3 19 Este 31 Este 0 -- -- 71
2021-03-05 12:00:00 10.6 14 Este 29 Este 0 -- -- 78
2021-03-05 11:00:00 7.5 15 Este 30 Nordeste 0 -- -- 91
2021-03-05 10:00:00 4.5 14 Nordeste 32 Nordeste 0 -- -- 94
2021-03-05 09:00:00 3.4 12 Nordeste 21 Nordeste 0 -- -- 92
2021-03-05 08:00:00 3.4 8 Nordeste 17 Nordeste 0 -- -- 91
2021-03-05 07:00:00 4.2 11 Nordeste 17 Nordeste 0 -- -- 90
2021-03-05 06:00:00 4.9 12 Nordeste 17 Nordeste 0 -- -- 88
2021-03-05 05:00:00 5.1 3 Norte 16 Nordeste 0 -- -- 88
2021-03-05 04:00:00 5.2 9 Este 19 Nordeste 0 -- -- 89
2021-03-05 03:00:00 5.5 10 Este 16 Nordeste 0 -- -- 89
2021-03-05 02:00:00 6.4 10 Nordeste 19 Este 0 -- -- 86
2021-03-05 01:00:00 7.7 9 Este 19 Nordeste 0 -- -- 82
2021-03-05 00:00:00 7.8 11 Nordeste 18 Este 0 -- -- 81
2021-03-04 23:00:00 8.4 6 Este 17 Nordeste 0 -- -- 74
2021-03-04 22:00:00 10.7 5 Sudeste 21 Sur 0 -- -- 64
2021-03-04 21:00:00 11.1 10 Sudeste 21 Sur 0 -- -- 65
2021-03-04 20:00:00 12.5 8 Este 15 Este 0 -- -- 63
2021-03-04 19:00:00 13.9 4 Este 9 Sur 0 -- -- 60
2021-03-04 18:00:00 16.4 4 Sudeste 12 Sudeste 0 -- -- 47
2021-03-04 17:00:00 17 7 Sur 16 Sur 0 -- -- 47
2021-03-04 16:00:00 17.2 10 Sur 25 Sudeste 0 -- -- 44
2021-03-04 15:00:00 16.9 9 Sudeste 21 Sudeste 0 -- -- 47
2021-03-04 14:00:00 15.7 9 Este 22 Este 0 -- -- 58
2021-03-04 13:00:00 14.3 11 Nordeste 19 Este 0 -- -- 64
2021-03-04 12:00:00 12.6 9 Nordeste 18 Este 0 -- -- 75
2021-03-04 11:00:00 10.5 6 Este 10 Este 0 -- -- 79
2021-03-04 10:00:00 7 4 Este 9 Sudeste 0 -- -- 92
2021-03-04 09:00:00 3.9 5 Nordeste 9 Nordeste 0 -- -- 94
2021-03-04 08:00:00 2.8 5 Este 12 Este 0 -- -- 92
2021-03-04 07:00:00 2.9 5 Sudeste 13 Este 0 -- -- 91
2021-03-04 06:00:00 3 7 Nordeste 14 Nordeste 0 -- -- 90
2021-03-04 05:00:00 3.6 5 Nordeste 10 Nordeste 0 -- -- 89
2021-03-04 04:00:00 4.7 3 Nordeste 14 Nordeste 0 -- -- 87
2021-03-04 03:00:00 5.2 8 Nordeste 13 Nordeste 0 -- -- 84
2021-03-04 02:00:00 8.8 5 Sudeste 21 Sudeste 0 -- -- 72
2021-03-04 01:00:00 8.5 9 Sudeste 18 Sudeste 0 -- -- 74
2021-03-04 00:00:00 5.4 5 Sudeste 12 Sudeste 0 -- -- 86
2021-03-03 23:00:00 6.2 3 Nordeste 6 Este 0 -- -- 85
2021-03-03 22:00:00 7.1 0 Calma 9 Sudeste 0 -- -- 80
2021-03-03 21:00:00 8.4 3 Sur 10 Sudeste 0 -- -- 78
2021-03-03 20:00:00 10.3 0 Calma 6 Este 0 -- -- 73
2021-03-03 19:00:00 13.8 4 Este 7 Este 0 -- -- 62
2021-03-03 18:00:00 15.8 3 Sur 9 Oeste 0 -- -- 49
2021-03-03 17:00:00 16.5 4 Oeste 11 Sudoeste 0 -- -- 50
2021-03-03 16:00:00 15.5 4 Norte 10 Norte 0 -- -- 55
2021-03-03 15:00:00 14.5 5 Sudeste 13 Sudoeste 0 -- -- 58
2021-03-03 14:00:00 15.4 5 Oeste 13 Sudoeste 0 -- -- 57
2021-03-03 13:00:00 14.6 8 Sur 14 Sur 0 -- -- 62
2021-03-03 12:00:00 13.4 7 Sudoeste 14 Sur 0 -- -- 67
2021-03-03 11:00:00 11.9 8 Sur 15 Sudeste 0 -- -- 74
2021-03-03 10:00:00 9.5 11 Sur 20 Sur 0 -- -- 83
2021-03-03 09:00:00 6.9 6 Sur 12 Sur 0 -- -- 93
2021-03-03 08:00:00 5.1 3 Nordeste 8 Nordeste 0 -- -- 93
2021-03-03 07:00:00 5 5 Este 9 Nordeste 0 -- -- 93
2021-03-03 06:00:00 6.1 3 Nordeste 8 Sur 0 -- -- 91
2021-03-03 05:00:00 5.2 3 Sudoeste 11 Sur 0 -- -- 90
2021-03-03 04:00:00 5.8 7 Sur 12 Sudeste 0 -- -- 91
2021-03-03 03:00:00 6.7 6 Sudeste 12 Sur 0 -- -- 90
2021-03-03 02:00:00 7.6 4 Sudeste 8 Sudeste 0 -- -- 93
2021-03-03 01:00:00 6.3 4 Sudeste 9 Sur 0 -- -- 93
2021-03-03 00:00:00 7.1 3 Nordeste 5 Este 0 -- -- 92
2021-03-02 23:00:00 8.6 3 Sur 9 Sudeste 0 -- -- 91
2021-03-02 22:00:00 9 5 Este 17 Oeste 0.6 -- -- 90
2021-03-02 21:00:00 9.6 13 Oeste 19 Oeste 0.2 -- -- 88
2021-03-02 20:00:00 10.3 0 Calma 6 Sudeste 0 -- -- 84
2021-03-02 19:00:00 11.4 2 Sur 8 Sudeste 0.2 -- -- 83
2021-03-02 18:00:00 11.8 7 Sudeste 20 Sur 0 -- -- 79
2021-03-02 17:00:00 14 7 Noroeste 17 Noroeste 0 -- -- 68
2021-03-02 16:00:00 12.7 11 Oeste 17 Oeste 0 -- -- 70
2021-03-02 15:00:00 13.3 7 Sudoeste 14 Sudoeste 0 -- -- 67
2021-03-02 14:00:00 13.6 9 Sudoeste 17 Sur 0 -- -- 67
2021-03-02 13:00:00 12.2 10 Sudoeste 19 Sur 0 -- -- 71
2021-03-02 12:00:00 11.5 9 Sur 21 Sur 0 -- -- 73
2021-03-02 11:00:00 10.7 11 Sur 24 Sudeste 0 -- -- 76
2021-03-02 10:00:00 8.4 9 Sudeste 19 Sur 0 -- -- 86
2021-03-02 09:00:00 7.6 9 Sur 18 Sur 0 -- -- 86
2021-03-02 08:00:00 7.4 9 Sur 22 Sur 0 -- -- 85
2021-03-02 07:00:00 7.5 12 Sur 26 Sudoeste 0 -- -- 85
2021-03-02 06:00:00 6.9 12 Sur 25 Sur 0 -- -- 86
2021-03-02 05:00:00 6.7 13 Sur 27 Sur 0 -- -- 86
2021-03-02 04:00:00 6.4 19 Sur 36 Sur 0 -- -- 87
2021-03-02 03:00:00 6.8 18 Sur 31 Sur 0 -- -- 86
2021-03-02 02:00:00 7.5 17 Sur 29 Sur 0 -- -- 84
2021-03-02 01:00:00 7.8 16 Sur 24 Sur 0 -- -- 84
2021-03-02 00:00:00 7.5 10 Sur 28 Sur 0 -- -- 84
2021-03-01 23:00:00 7.4 15 Sur 26 Sur 0 -- -- 82
2021-03-01 22:00:00 8.6 7 Sur 16 Sudoeste 0 -- -- 76
2021-03-01 21:00:00 9.4 6 Sur 25 Sur 0 -- -- 75
2021-03-01 20:00:00 9.4 9 Sur 33 Sur 0 -- -- 76
2021-03-01 19:00:00 9.6 17 Sur 38 Sur 0 -- -- 76
2021-03-01 18:00:00 10.9 22 Sur 39 Sur 0 -- -- 68
2021-03-01 17:00:00 12.4 19 Sur 36 Sudoeste 0 -- -- 63
2021-03-01 16:00:00 13.6 20 Sur 35 Sur 0 -- -- 59
2021-03-01 15:00:00 13.2 17 Sur 34 Sudoeste 0 -- -- 59
2021-03-01 14:00:00 12.5 13 Sur 41 Sudeste 0 -- -- 67
2021-03-01 13:00:00 11.5 13 Sur 34 Sur 0 -- -- 67
2021-03-01 12:00:00 10.6 18 Sur 41 Sur 0 -- -- 78
2021-03-01 11:00:00 9.2 19 Sur 34 Sur 0 -- -- 83
2021-03-01 10:00:00 6.8 16 Sudeste 44 Sur 3.4 -- -- 90
2021-03-01 09:00:00 6 32 Sur 60 Sur 1 -- -- 87
2021-03-01 08:00:00 6.2 19 Sur 41 Sur 0 -- -- 83
2021-03-01 07:00:00 6.4 24 Sur 41 Sur 0 -- -- 83
2021-03-01 06:00:00 6.4 26 Sur 40 Sur 0 -- -- 82
2021-03-01 05:00:00 6.7 20 Sur 37 Sur 0 -- -- 79
2021-03-01 04:00:00 6.9 16 Sur 30 Sur 0 -- -- 82
2021-03-01 03:00:00 7 18 Sur 35 Sur 0 -- -- 81
2021-03-01 02:00:00 7.6 17 Sur 39 Sur 0.2 -- -- 82
2021-03-01 01:00:00 8.2 14 Sur 31 Sur 0 -- -- 78
2021-03-01 00:00:00 4.8 5 Sudeste 10 Sur 0 -- -- 90
2021-02-28 23:00:00 3.5 5 Sur 10 Este 0 -- -- 87
2021-02-28 22:00:00 5 3 Este 10 Este 0 -- -- 85
2021-02-28 21:00:00 5.8 6 Nordeste 20 Este 0 -- -- 80
2021-02-28 20:00:00 7.4 12 Este 27 Este 0 -- -- 75
2021-02-28 19:00:00 9 10 Este 23 Nordeste 0 -- -- 69
2021-02-28 18:00:00 11.4 11 Este 22 Nordeste 0 -- -- 57
2021-02-28 17:00:00 12.6 10 Nordeste 21 Nordeste 0 -- -- 53
2021-02-28 16:00:00 12.6 8 Nordeste 20 Nordeste 0 -- -- 52
2021-02-28 15:00:00 12.2 10 Nordeste 23 Nordeste 0 -- -- 54
2021-02-28 14:00:00 11.2 12 Este 23 Este 0 -- -- 58
2021-02-28 13:00:00 9.7 13 Nordeste 30 Nordeste 0 -- -- 66
2021-02-28 12:00:00 8 14 Este 26 Este 0 -- -- 70
2021-02-28 11:00:00 5.9 13 Este 29 Nordeste 0 -- -- 76
2021-02-28 10:00:00 3.8 15 Este 28 Este 0 -- -- 84
2021-02-28 09:00:00 2 16 Este 31 Nordeste 0 -- -- 88
2021-02-28 08:00:00 0.8 14 Nordeste 28 Nordeste 0 -- -- 89
2021-02-28 07:00:00 0.8 10 Nordeste 27 Nordeste 0 -- -- 89
2021-02-28 06:00:00 0.9 10 Nordeste 25 Nordeste 0 -- -- 88
2021-02-28 05:00:00 1.4 9 Nordeste 37 Nordeste 0 -- -- 87
2021-02-28 04:00:00 1.8 15 Nordeste 36 Este 0 -- -- 86
2021-02-28 03:00:00 2.2 15 Nordeste 34 Este 0 -- -- 85
2021-02-28 02:00:00 2.5 16 Este 32 Este 0 -- -- 84
2021-02-28 01:00:00 3.4 15 Este 33 Este 0 -- -- 80
2021-02-28 00:00:00 4 15 Este 36 Este 0 -- -- 74
2021-02-27 23:00:00 4.7 14 Este 34 Nordeste 0 -- -- 69
2021-02-27 22:00:00 5.5 11 Nordeste 26 Este 0 -- -- 71
2021-02-27 21:00:00 6.9 15 Este 27 Este 0 -- -- 68
2021-02-27 20:00:00 8.7 13 Este 24 Este 0 -- -- 62
2021-02-27 19:00:00 10.7 7 Este 29 Este 0 -- -- 58
2021-02-27 18:00:00 13 15 Este 31 Este 0 -- -- 49
2021-02-27 17:00:00 13.6 17 Este 29 Este 0 -- -- 57
2021-02-27 16:00:00 14 15 Este 31 Este 0 -- -- 60
2021-02-27 15:00:00 13.3 16 Este 31 Este 0 -- -- 62
2021-02-27 14:00:00 12.8 15 Este 32 Nordeste 0 -- -- 67
2021-02-27 13:00:00 11.8 17 Este 35 Este 0 -- -- 68
2021-02-27 12:00:00 10.5 16 Este 33 Este 0 -- -- 72
2021-02-27 11:00:00 8.7 17 Este 36 Este 0 -- -- 78
2021-02-27 10:00:00 7.2 16 Este 35 Este 0 -- -- 84
2021-02-27 09:00:00 5.2 9 Nordeste 23 Sudeste 0 -- -- 90
2021-02-27 08:00:00 4.1 9 Nordeste 27 Este 0 -- -- 91
2021-02-27 07:00:00 4.6 13 Nordeste 31 Nordeste 0 -- -- 91
2021-02-27 06:00:00 4.7 6 Nordeste 24 Este 0 -- -- 92
2021-02-27 05:00:00 4.6 6 Nordeste 18 Norte 0 -- -- 93
2021-02-27 04:00:00 4.7 9 Norte 18 Norte 0 -- -- 92
2021-02-27 03:00:00 4.9 9 Nordeste 22 Nordeste 0 -- -- 91
2021-02-27 02:00:00 5.4 11 Nordeste 20 Nordeste 0 -- -- 90
2021-02-27 01:00:00 5.6 6 Nordeste 14 Noroeste 0 -- -- 89
2021-02-27 00:00:00 6.2 4 Norte 11 Nordeste 0 -- -- 88
2021-02-26 23:00:00 7.4 4 Noroeste 23 Este 0 -- -- 84
2021-02-26 22:00:00 8 5 Nordeste 18 Este 0 -- -- 83
2021-02-26 21:00:00 9.3 12 Este 32 Este 0 -- -- 77
2021-02-26 20:00:00 10.2 19 Este 33 Este 0 -- -- 74
2021-02-26 19:00:00 11.3 11 Este 25 Este 0 -- -- 70
2021-02-26 18:00:00 12.8 10 Este 20 Nordeste 0 -- -- 68
2021-02-26 17:00:00 14 9 Este 23 Nordeste 0 -- -- 62
2021-02-26 16:00:00 14 12 Este 23 Este 0 -- -- 63
2021-02-26 15:00:00 13.6 12 Este 24 Este 0 -- -- 64
2021-02-26 14:00:00 13.1 14 Este 25 Este 0 -- -- 66
2021-02-26 13:00:00 12.3 15 Este 27 Este 0 -- -- 70
2021-02-26 12:00:00 10.6 17 Este 32 Este 0 -- -- 77
2021-02-26 11:00:00 8.7 19 Este 36 Este 0 -- -- 83
2021-02-26 10:00:00 7.3 17 Este 28 Este 0 -- -- 87
2021-02-26 09:00:00 6.2 17 Este 33 Este 0 -- -- 90
2021-02-26 08:00:00 6 17 Este 33 Este 0 -- -- 89
2021-02-26 07:00:00 6.2 17 Este 33 Este 0 -- -- 89
2021-02-26 06:00:00 6.4 14 Este 28 Este 0 -- -- 89
2021-02-26 05:00:00 6.3 7 Nordeste 18 Nordeste 0 -- -- 89
2021-02-26 04:00:00 6.4 5 Norte 25 Nordeste 0 -- -- 89
2021-02-26 03:00:00 6.7 10 Nordeste 35 Este 0 -- -- 88
2021-02-26 02:00:00 6.9 18 Este 40 Sudeste 0 -- -- 88
2021-02-26 01:00:00 7.3 22 Este 38 Nordeste 0 -- -- 87
2021-02-26 00:00:00 7.3 14 Nordeste 28 Nordeste 0 -- -- 86
2021-02-25 23:00:00 7.5 10 Nordeste 28 Este 0 -- -- 87
2021-02-25 22:00:00 8.1 12 Nordeste 24 Este 0 -- -- 85
2021-02-25 21:00:00 8.9 11 Nordeste 21 Este 0 -- -- 83
2021-02-25 20:00:00 9.4 5 Nordeste 10 Este 0 -- -- 80
2021-02-25 19:00:00 10.7 7 Nordeste 13 Este 0 -- -- 76
2021-02-25 18:00:00 12.2 8 Este 14 Este 0 -- -- 69
2021-02-25 17:00:00 12.9 8 Nordeste 13 Nordeste 0 -- -- 64
2021-02-25 16:00:00 13.2 3 Noroeste 12 Noroeste 0 -- -- 62
2021-02-25 15:00:00 13 6 Oeste 11 Sudoeste 0 -- -- 64
2021-02-25 14:00:00 12.6 6 Sudoeste 19 Sur 0 -- -- 64
2021-02-25 13:00:00 11.9 9 Sur 19 Sur 0 -- -- 67
2021-02-25 12:00:00 10.5 9 Sudeste 19 Sur 0 -- -- 69
2021-02-25 11:00:00 9.4 5 Este 25 Sur 0 -- -- 74
2021-02-25 10:00:00 8.4 5 Sur 24 Sur 0 -- -- 76
2021-02-25 09:00:00 8.1 15 Sur 33 Sur 0 -- -- 76
2021-02-25 08:00:00 6.9 9 Sur 18 Sudeste 0 -- -- 82
2021-02-25 07:00:00 6.2 4 Nordeste 28 Sur 0 -- -- 83
2021-02-25 06:00:00 6.7 18 Sur 30 Sudeste 0 -- -- 82
2021-02-25 05:00:00 6.9 20 Sur 30 Sur 0 -- -- 83
2021-02-25 04:00:00 7.3 19 Sur 27 Sur 0 -- -- 82
2021-02-25 03:00:00 7.7 5 Nordeste 8 Nordeste 0 -- -- 81
2021-02-25 02:00:00 7 2 Sudeste 15 Sur 0 -- -- 81
2021-02-25 01:00:00 8.8 9 Sur 23 Sudoeste 0 -- -- 76
2021-02-25 00:00:00 8.1 4 Sudoeste 13 Oeste 0 -- -- 82
2021-02-24 23:00:00 9.7 6 Sudoeste 24 Sudoeste 0 -- -- 75
2021-02-24 22:00:00 10.9 14 Sur 27 Sur 0 -- -- 71
2021-02-24 21:00:00 10.7 13 Sur 30 Sur 0 -- -- 72
2021-02-24 20:00:00 11.2 14 Sur 24 Sur 0 -- -- 69
2021-02-24 19:00:00 12.4 14 Sur 26 Sur 0 -- -- 63
2021-02-24 18:00:00 15.3 10 Sur 29 Sudoeste 0 -- -- 54
2021-02-24 17:00:00 15.8 15 Sudoeste 30 Sur 0 -- -- 55
2021-02-24 16:00:00 15.5 14 Sudoeste 29 Sudoeste 0 -- -- 53
2021-02-24 15:00:00 15.3 18 Sudoeste 36 Sudoeste 0 -- -- 56
2021-02-24 14:00:00 15.4 15 Sur 33 Sudoeste 0 -- -- 55
2021-02-24 13:00:00 14.1 17 Sur 30 Sudoeste 0 -- -- 60
2021-02-24 12:00:00 12.2 8 Oeste 25 Sudoeste 0 -- -- 66
2021-02-24 11:00:00 10.8 9 Sudoeste 21 Sudoeste 0 -- -- 67
2021-02-24 10:00:00 9 13 Sur 23 Sur 0 -- -- 74
2021-02-24 09:00:00 5.9 5 Nordeste 13 Sur 0 -- -- 84
2021-02-24 08:00:00 5.5 8 Sur 28 Sur 0 -- -- 82
2021-02-24 07:00:00 5.1 12 Sur 26 Sur 0 -- -- 87
2021-02-24 06:00:00 5.4 5 Oeste 27 Sur 0 -- -- 80
2021-02-24 05:00:00 6.3 12 Sudoeste 22 Sudoeste 0 -- -- 79
2021-02-24 04:00:00 5.8 12 Sur 21 Sur 0 -- -- 82
2021-02-24 03:00:00 5.8 10 Sudoeste 17 Sur 0 -- -- 82
2021-02-24 02:00:00 6.7 7 Oeste 27 Sur 0 -- -- 75
2021-02-24 01:00:00 7.4 15 Sur 28 Sur 0 -- -- 74
2021-02-24 00:00:00 7.6 14 Sur 25 Sur 0 -- -- 73
2021-02-23 23:00:00 7.6 14 Sur 26 Sur 0 -- -- 72
2021-02-23 22:00:00 8.3 15 Sur 27 Sur 0 -- -- 69
2021-02-23 21:00:00 6.7 3 Sudeste 14 Sudoeste 0 -- -- 74
2021-02-23 20:00:00 7.8 6 Sudeste 12 Sudeste 0 -- -- 71
2021-02-23 19:00:00 10.7 8 Sur 19 Sur 0 -- -- 60
2021-02-23 18:00:00 13.4 11 Sur 21 Sudoeste 0 -- -- 51
2021-02-23 17:00:00 13.9 11 Sudoeste 26 Sur 0 -- -- 47
2021-02-23 16:00:00 13.2 12 Sudoeste 30 Sudoeste 0 -- -- 44
2021-02-23 15:00:00 13 11 Sudoeste 20 Sudoeste 0 -- -- 45
2021-02-23 14:00:00 12 13 Sudoeste 24 Sudoeste 0 -- -- 54
2021-02-23 13:00:00 11.2 11 Sur 22 Sur 0 -- -- 51
2021-02-23 12:00:00 9.9 8 Sur 19 Sudeste 0 -- -- 60
2021-02-23 11:00:00 7.7 8 Sur 12 Sur 0 -- -- 69
2021-02-23 10:00:00 2.6 4 Este 12 Este 0 -- -- 88
2021-02-23 09:00:00 -1 4 Este 9 Nordeste 0 -- -- 91
2021-02-23 08:00:00 -2.1 3 Nordeste 9 Nordeste 0 -- -- 90
2021-02-23 07:00:00 -1.4 6 Nordeste 10 Nordeste 0 -- -- 89
2021-02-23 06:00:00 -0.6 2 Oeste 8 Sur 0 -- -- 87
2021-02-23 05:00:00 0.4 0 Calma 15 Sudeste 0 -- -- 84
2021-02-23 04:00:00 0.1 8 Sur 11 Sur 0 -- -- 90
2021-02-23 03:00:00 -1.4 3 Oeste 5 Noroeste 0 -- -- 89
2021-02-23 02:00:00 -0.7 0 Calma 6 Noroeste 0 -- -- 89
2021-02-23 01:00:00 -0.3 4 Oeste 5 Noroeste 0 -- -- 87
2021-02-23 00:00:00 0.4 2 Noroeste 8 Sur 0 -- -- 84
2021-02-22 23:00:00 1.6 3 Sur 9 Sur 0 -- -- 83
2021-02-22 22:00:00 1 0 Calma 5 Sur 0 -- -- 84
2021-02-22 21:00:00 2.2 2 Sudeste 6 Sudeste 0 -- -- 81
2021-02-22 20:00:00 4.6 5 Sudeste 7 Sudeste 0 -- -- 74
2021-02-22 19:00:00 8.5 4 Sudoeste 6 Noroeste 0 -- -- 59
2021-02-22 18:00:00 10.2 4 Noroeste 18 Oeste 0 -- -- 50
2021-02-22 17:00:00 10.3 8 Oeste 21 Oeste 0 -- -- 58
2021-02-22 16:00:00 9.8 13 Oeste 23 Oeste 0 -- -- 66
2021-02-22 15:00:00 9.8 11 Oeste 21 Oeste 0 -- -- 66
2021-02-22 14:00:00 9.3 9 Sudoeste 18 Sudoeste 0 -- -- 67
2021-02-22 13:00:00 8.1 6 Oeste 14 Oeste 0 -- -- 70
2021-02-22 12:00:00 6.6 5 Noroeste 19 Noroeste 0 -- -- 75
2021-02-22 11:00:00 4.7 9 Noroeste 18 Noroeste 0 -- -- 80
2021-02-22 10:00:00 3 9 Oeste 13 Oeste 0 -- -- 89
2021-02-22 09:00:00 0.8 5 Oeste 15 Oeste 0 -- -- 91
2021-02-22 08:00:00 1.4 11 Oeste 17 Oeste 0 -- -- 88
2021-02-22 07:00:00 2.6 8 Oeste 14 Oeste 0 -- -- 87
2021-02-22 06:00:00 3.3 8 Oeste 18 Oeste 0 -- -- 86
2021-02-22 05:00:00 3.7 12 Noroeste 21 Noroeste 0 -- -- 90
2021-02-22 04:00:00 4 5 Oeste 9 Oeste 0 -- -- 92
2021-02-22 03:00:00 4.1 6 Oeste 14 Norte 0 -- -- 89
2021-02-22 02:00:00 4.1 10 Norte 30 Norte 0.4 -- -- 89
2021-02-22 01:00:00 3.9 19 Norte 28 Norte 0 -- -- 91
2021-02-22 00:00:00 3.3 15 Noroeste 28 Norte 0 -- -- 93
2021-02-21 23:00:00 3.1 14 Norte 31 Norte 0.6 -- -- 92
2021-02-21 22:00:00 3.8 18 Norte 34 Noroeste 1.2 -- -- 92
2021-02-21 21:00:00 4.9 10 Noroeste 23 Noroeste 1 -- -- 92
2021-02-21 20:00:00 5.6 10 Oeste 17 Oeste 1.8 -- -- 94
2021-02-21 19:00:00 5.6 10 Oeste 18 Oeste 1.8 -- -- 93
2021-02-21 18:00:00 6.4 12 Oeste 21 Oeste 1.6 -- -- 91
2021-02-21 17:00:00 7.3 8 Oeste 17 Oeste 0.4 -- -- 89
2021-02-21 16:00:00 7.8 7 Oeste 18 Oeste 0 -- -- 85
2021-02-21 15:00:00 8.4 10 Oeste 18 Oeste 0 -- -- 80
2021-02-21 14:00:00 8.2 15 Oeste 26 Oeste 0 -- -- 82
2021-02-21 13:00:00 8.9 22 Oeste 41 Oeste 0 -- -- 80
2021-02-21 12:00:00 11.9 15 Sur 31 Sur 0 -- -- 62
2021-02-21 11:00:00 10.8 20 Sur 31 Sur 0 -- -- 65
2021-02-21 10:00:00 10 17 Sur 32 Sur 0 -- -- 65
2021-02-21 09:00:00 8.8 15 Sudeste 27 Sur 0 -- -- 68
2021-02-21 08:00:00 8.8 20 Sur 30 Sur 0 -- -- 67
2021-02-21 07:00:00 8.8 16 Sur 31 Sur 0 -- -- 66
2021-02-21 06:00:00 9.2 14 Sur 31 Sur 0 -- -- 63
2021-02-21 05:00:00 10.3 19 Sur 33 Sudeste 0 -- -- 58
2021-02-21 04:00:00 10.8 21 Sudeste 35 Sudeste 0 -- -- 52
2021-02-21 03:00:00 10.5 21 Sur 30 Sudeste 0 -- -- 49
2021-02-21 02:00:00 10.4 10 Sudeste 28 Sur 0 -- -- 48
2021-02-21 01:00:00 10.2 16 Sur 31 Sudeste 0 -- -- 47
2021-02-21 00:00:00 9.8 10 Sur 26 Sur 0 -- -- 53
2021-02-20 23:00:00 10.1 10 Sudeste 20 Sur 0 -- -- 48
2021-02-20 22:00:00 10.1 6 Sudeste 24 Sur 0 -- -- 50
2021-02-20 21:00:00 12 12 Sur 33 Sur 0 -- -- 44
2021-02-20 20:00:00 12.1 15 Sur 28 Sudoeste 0 -- -- 45
2021-02-20 19:00:00 12.4 14 Sur 26 Sur 0 -- -- 47
2021-02-20 18:00:00 12.7 12 Sudoeste 23 Sur 0 -- -- 51
2021-02-20 17:00:00 13.7 10 Sudoeste 34 Sudoeste 0 -- -- 51
2021-02-20 16:00:00 14.8 21 Sudoeste 44 Sudoeste 0 -- -- 44
2021-02-20 15:00:00 14.6 26 Sudoeste 45 Sudoeste 0 -- -- 42
2021-02-20 14:00:00 12.9 19 Sudoeste 40 Sudoeste 0 -- -- 50
2021-02-20 13:00:00 12 19 Sudoeste 39 Sur 0 -- -- 53
2021-02-20 12:00:00 10.7 14 Oeste 31 Sudoeste 0 -- -- 60
2021-02-20 11:00:00 9.4 9 Sudoeste 24 Sur 0 -- -- 63
2021-02-20 10:00:00 8.3 12 Sudoeste 24 Sur 0 -- -- 66
2021-02-20 09:00:00 4.5 0 Calma 9 Sur 0 -- -- 80
2021-02-20 08:00:00 3.9 7 Sudeste 13 Sudeste 0 -- -- 80
2021-02-20 07:00:00 4.3 5 Sur 15 Sur 0 -- -- 80
2021-02-20 06:00:00 4.4 8 Sur 13 Sudeste 0 -- -- 81
2021-02-20 05:00:00 4.7 9 Sur 14 Sur 0 -- -- 79
2021-02-20 04:00:00 4.5 9 Sur 14 Sur 0 -- -- 82
2021-02-20 03:00:00 6.7 6 Sur 22 Sur 0 -- -- 76
2021-02-20 02:00:00 7.1 12 Sur 21 Sur 0 -- -- 76
2021-02-20 01:00:00 7.7 9 Sudoeste 21 Sudoeste 0 -- -- 75
2021-02-20 00:00:00 7.3 10 Sudoeste 18 Sudoeste 0 -- -- 77
2021-02-19 23:00:00 7.8 8 Sudoeste 22 Sudoeste 0 -- -- 75
2021-02-19 22:00:00 8.9 13 Sudoeste 30 Sudoeste 0 -- -- 71
2021-02-19 21:00:00 9.4 21 Sudoeste 33 Sudoeste 0 -- -- 68
2021-02-19 20:00:00 9.6 16 Sudoeste 24 Sudoeste 0 -- -- 68
2021-02-19 19:00:00 9.8 6 Sur 15 Oeste 0 -- -- 76
2021-02-19 18:00:00 12 9 Oeste 21 Oeste 0 -- -- 70
2021-02-19 17:00:00 13.1 17 Oeste 37 Oeste 0 -- -- 61
2021-02-19 16:00:00 14.1 21 Oeste 46 Oeste 0 -- -- 57
2021-02-19 15:00:00 15.1 21 Sudoeste 42 Sudoeste 0 -- -- 50
2021-02-19 14:00:00 13.7 22 Sudoeste 45 Sudoeste 0 -- -- 58
2021-02-19 13:00:00 13.5 25 Sudoeste 35 Sudoeste 0 -- -- 58
2021-02-19 12:00:00 12.2 24 Sudoeste 33 Sudoeste 0 -- -- 62
2021-02-19 11:00:00 10.6 15 Sudoeste 29 Sudoeste 0 -- -- 74
2021-02-19 10:00:00 9.3 15 Sudoeste 26 Sudoeste 0 -- -- 81
2021-02-19 09:00:00 7.8 11 Sudoeste 24 Sur 0 -- -- 84
2021-02-19 08:00:00 7.6 9 Sudoeste 22 Sur 0 -- -- 84
2021-02-19 07:00:00 7.4 8 Sudoeste 21 Sudoeste 0 -- -- 86
2021-02-19 06:00:00 7.9 14 Sudoeste 25 Sudoeste 0 -- -- 84
2021-02-19 05:00:00 8.4 12 Sudoeste 28 Sudoeste 0 -- -- 84
2021-02-19 04:00:00 8.2 8 Sudoeste 15 Sudoeste 0 -- -- 93
2021-02-19 03:00:00 8.3 4 Oeste 14 Sudoeste 0.2 -- -- 94
2021-02-19 02:00:00 8.4 10 Sudoeste 17 Sudoeste 0.2 -- -- 94
2021-02-19 01:00:00 8.5 6 Sudoeste 19 Oeste 0.4 -- -- 94
2021-02-19 00:00:00 8.6 13 Oeste 32 Oeste 0.4 -- -- 93
2021-02-18 23:00:00 8.8 22 Sudoeste 32 Sudoeste 0.4 -- -- 92
2021-02-18 22:00:00 8.9 13 Sudoeste 32 Sudoeste 1 -- -- 92
2021-02-18 21:00:00 9.3 14 Sudoeste 25 Sudoeste 0 -- -- 90
2021-02-18 20:00:00 9.4 14 Sudoeste 25 Sudoeste 0 -- -- 89
2021-02-18 19:00:00 9.7 13 Sudoeste 35 Sudoeste 0 -- -- 86
2021-02-18 18:00:00 10.8 25 Sudoeste 37 Sudoeste 0 -- -- 80
2021-02-18 17:00:00 11.5 27 Sudoeste 41 Oeste 0 -- -- 76
2021-02-18 16:00:00 10.9 26 Oeste 42 Oeste 0.2 -- -- 82
2021-02-18 15:00:00 12.4 26 Oeste 45 Oeste 0 -- -- 74
2021-02-18 14:00:00 11.5 31 Oeste 49 Sudoeste 0 -- -- 72
2021-02-18 13:00:00 11.7 30 Oeste 49 Oeste 0 -- -- 72
2021-02-18 12:00:00 10.8 28 Oeste 47 Sudoeste 0 -- -- 75
2021-02-18 11:00:00 10 30 Sudoeste 45 Sudoeste 0 -- -- 76
2021-02-18 10:00:00 8.3 22 Sudoeste 45 Sudoeste 0 -- -- 82
2021-02-18 09:00:00 6.5 15 Sudoeste 24 Sudoeste 0 -- -- 91
2021-02-18 08:00:00 6.3 15 Sudoeste 24 Sur 0 -- -- 91
2021-02-18 07:00:00 5.7 9 Sudoeste 18 Sur 0 -- -- 91
2021-02-18 06:00:00 6.1 10 Sudoeste 19 Sudoeste 0 -- -- 91
2021-02-18 05:00:00 6.6 14 Sudoeste 26 Sudoeste 0 -- -- 89
2021-02-18 04:00:00 7 10 Sudoeste 22 Sur 0 -- -- 87
2021-02-18 03:00:00 7.9 15 Sudoeste 32 Sudoeste 0 -- -- 86
2021-02-18 02:00:00 6.8 5 Sudoeste 12 Sudoeste 0 -- -- 88
2021-02-18 01:00:00 7.6 12 Sudoeste 22 Oeste 0 -- -- 86
2021-02-18 00:00:00 8.4 12 Oeste 24 Sudoeste 0 -- -- 82
2021-02-17 23:00:00 9.3 12 Sudoeste 27 Sudoeste 0 -- -- 79
2021-02-17 22:00:00 9.1 11 Sudoeste 27 Sudoeste 0 -- -- 85
2021-02-17 21:00:00 8.4 7 Oeste 13 Sudoeste 0 -- -- 85
2021-02-17 20:00:00 9.3 9 Sur 14 Sur 0 -- -- 87
2021-02-17 19:00:00 10.5 4 Sur 12 Oeste 0 -- -- 87
2021-02-17 18:00:00 11.7 9 Oeste 21 Oeste 0 -- -- 83
2021-02-17 17:00:00 12.8 15 Sudoeste 27 Sudoeste 0 -- -- 78
2021-02-17 16:00:00 11.8 9 Oeste 23 Oeste 0 -- -- 84
2021-02-17 15:00:00 11.9 17 Oeste 27 Sudoeste 0 -- -- 80
2021-02-17 14:00:00 11.3 14 Oeste 27 Oeste 0 -- -- 85
2021-02-17 13:00:00 11.1 14 Oeste 27 Sudoeste 0 -- -- 87
2021-02-17 12:00:00 10.4 17 Sudoeste 27 Sudoeste 0 -- -- 91
2021-02-17 11:00:00 9.6 12 Sudoeste 23 Sudoeste 0 -- -- 95
2021-02-17 10:00:00 7.9 10 Sur 15 Sudeste 0 -- -- 97
2021-02-17 09:00:00 6.7 4 Sudoeste 7 Sur 0 -- -- 97
2021-02-17 08:00:00 6.5 0 Calma 6 Sudoeste 0 -- -- 96
2021-02-17 07:00:00 6.4 4 Oeste 10 Sudoeste 0 -- -- 96
2021-02-17 06:00:00 5.2 0 Calma 3 Oeste 0 -- -- 96
2021-02-17 05:00:00 5.1 0 Calma 5 Oeste 0 -- -- 94
2021-02-17 04:00:00 5.6 4 Oeste 7 Sur 0 -- -- 94
2021-02-17 03:00:00 6.9 5 Sur 8 Sur 0 -- -- 94
2021-02-17 02:00:00 7.8 4 Sudoeste 13 Oeste 1.2 -- -- 95
2021-02-17 01:00:00 8.2 9 Oeste 13 Oeste 3.6 -- -- 94
2021-02-17 00:00:00 8 0 Calma 3 Este 1.2 -- -- 94
2021-02-16 23:00:00 7.6 3 Sudoeste 8 Oeste 0 -- -- 93
2021-02-16 22:00:00 7.8 6 Sudoeste 14 Sudoeste 0 -- -- 93
2021-02-16 21:00:00 8.3 8 Sudoeste 13 Sudoeste 0 -- -- 92
2021-02-16 20:00:00 9 11 Sudoeste 18 Sudoeste 0.2 -- -- 91
2021-02-16 19:00:00 9.4 7 Sudoeste 27 Noroeste 0 -- -- 90
2021-02-16 18:00:00 9.5 22 Noroeste 41 Oeste 0 -- -- 88
2021-02-16 17:00:00 11.5 15 Oeste 36 Oeste 0 -- -- 79
2021-02-16 16:00:00 11.7 20 Oeste 34 Oeste 0 -- -- 75
2021-02-16 15:00:00 11.7 21 Oeste 40 Sudoeste 0 -- -- 75
2021-02-16 14:00:00 11.8 27 Oeste 43 Oeste 0 -- -- 71
2021-02-16 13:00:00 12.4 27 Oeste 48 Sudoeste 0 -- -- 68
2021-02-16 12:00:00 11.9 31 Sudoeste 49 Sudoeste 0 -- -- 69
2021-02-16 11:00:00 9.7 23 Oeste 43 Sudoeste 0 -- -- 79
2021-02-16 10:00:00 6.6 10 Sudoeste 13 Sudoeste 0 -- -- 87
2021-02-16 09:00:00 2.7 3 Noroeste 10 Sur 0 -- -- 91
2021-02-16 08:00:00 2.8 5 Nordeste 7 Sur 0 -- -- 88
2021-02-16 07:00:00 3.4 9 Sur 16 Sur 0 -- -- 89
2021-02-16 06:00:00 3.2 3 Noroeste 11 Sudeste 0 -- -- 86
2021-02-16 05:00:00 4.4 6 Sudeste 12 Sudeste 0 -- -- 89
2021-02-16 04:00:00 2.4 3 Sur 8 Sudeste 0 -- -- 90
2021-02-16 03:00:00 3.3 2 Sudoeste 6 Sur 0 -- -- 88
2021-02-16 02:00:00 4.7 2 Sur 7 Noroeste 0 -- -- 87
2021-02-16 01:00:00 5.7 3 Norte 6 Noroeste 0 -- -- 86
2021-02-16 00:00:00 6.8 2 Sudoeste 16 Sur 0 -- -- 81
2021-02-15 23:00:00 7.5 4 Sur 10 Sudeste 0 -- -- 82
2021-02-15 22:00:00 8.5 3 Este 12 Sur 0 -- -- 80
2021-02-15 21:00:00 9.2 9 Sudeste 15 Sur 0 -- -- 79
2021-02-15 20:00:00 10.3 5 Sudeste 8 Sudeste 0 -- -- 73
2021-02-15 19:00:00 13.2 0 Calma 9 Sudeste 0 -- -- 66
2021-02-15 18:00:00 16.4 5 Sur 14 Sudoeste 0 -- -- 56
2021-02-15 17:00:00 16.6 8 Sur 21 Sudeste 0 -- -- 54
2021-02-15 16:00:00 16.7 12 Sur 21 Sur 0 -- -- 55
2021-02-15 15:00:00 16.2 12 Sur 19 Sur 0 -- -- 55
2021-02-15 14:00:00 15.1 13 Sur 22 Sur 0 -- -- 58
2021-02-15 13:00:00 13.7 8 Sudeste 15 Sur 0 -- -- 63
2021-02-15 12:00:00 11.4 11 Sudeste 23 Sur 0 -- -- 71
2021-02-15 11:00:00 9.5 9 Sudeste 24 Sur 0 -- -- 78
2021-02-15 10:00:00 8 15 Sur 21 Sur 0 -- -- 82
2021-02-15 09:00:00 2.8 2 Sudeste 12 Sudeste 0 -- -- 90
2021-02-15 08:00:00 5 8 Sur 13 Sur 0 -- -- 90
2021-02-15 07:00:00 3.1 4 Este 10 Este 0 -- -- 93
2021-02-15 06:00:00 2.3 0 Calma 8 Este 0 -- -- 91
2021-02-15 05:00:00 3.8 6 Nordeste 15 Sur 0 -- -- 89
2021-02-15 04:00:00 4.8 9 Sur 14 Sur 0 -- -- 92
2021-02-15 03:00:00 3.8 4 Sudeste 10 Nordeste 0 -- -- 92
2021-02-15 02:00:00 4.8 7 Sur 12 Sur 0 -- -- 94
2021-02-15 01:00:00 3.4 4 Noroeste 5 Oeste 0 -- -- 91
2021-02-15 00:00:00 4.3 3 Noroeste 6 Noroeste 0 -- -- 91
2021-02-14 23:00:00 5 3 Noroeste 8 Sudoeste 0 -- -- 89
2021-02-14 22:00:00 5.7 2 Noroeste 8 Sur 0 -- -- 88
2021-02-14 21:00:00 7.2 2 Este 6 Este 0 -- -- 86
2021-02-14 20:00:00 9.2 3 Nordeste 8 Sur 0 -- -- 82
2021-02-14 19:00:00 11.3 4 Sur 5 Sur 0 -- -- 77
2021-02-14 18:00:00 13.7 4 Sudoeste 13 Sudoeste 0 -- -- 71
2021-02-14 17:00:00 14.7 8 Sudoeste 17 Sur 0 -- -- 60
2021-02-14 16:00:00 14.9 6 Sudoeste 12 Sudoeste 0 -- -- 64
2021-02-14 15:00:00 14.3 3 Oeste 13 Oeste 0 -- -- 67
2021-02-14 14:00:00 13.6 7 Sudoeste 16 Sudoeste 0 -- -- 68
2021-02-14 13:00:00 13.2 10 Sur 21 Sur 0 -- -- 71
2021-02-14 12:00:00 10.1 4 Sudoeste 9 Este 0 -- -- 95
2021-02-14 11:00:00 5.1 5 Nordeste 9 Nordeste 0 -- -- 98
2021-02-14 10:00:00 1.7 7 Nordeste 13 Nordeste 0 -- -- 98
2021-02-14 09:00:00 -0.2 10 Nordeste 17 Nordeste 0 -- -- 96
2021-02-14 08:00:00 0.3 7 Nordeste 13 Nordeste 0 -- -- 96
2021-02-14 07:00:00 -0.1 0 Calma 10 Nordeste 0 -- -- 96
2021-02-14 06:00:00 0.5 7 Nordeste 12 Nordeste 0 -- -- 95
2021-02-14 05:00:00 1.5 6 Nordeste 10 Nordeste 0 -- -- 95
2021-02-14 04:00:00 1.8 4 Noroeste 8 Sur 0 -- -- 95
2021-02-14 03:00:00 1.4 4 Sur 7 Sur 0 -- -- 93
2021-02-14 02:00:00 1.9 3 Oeste 5 Oeste 0 -- -- 92
2021-02-14 01:00:00 2.8 2 Oeste 4 Oeste 0 -- -- 93
2021-02-14 00:00:00 3.8 0 Calma 4 Norte 0 -- -- 93
2021-02-13 23:00:00 4.5 0 Calma 4 Noroeste 0 -- -- 91
2021-02-13 22:00:00 5 0 Calma 5 Oeste 0 -- -- 89
2021-02-13 21:00:00 6.4 0 Calma 9 Sur 0 -- -- 87
2021-02-13 20:00:00 8.2 3 Sur 11 Sur 0 -- -- 84
2021-02-13 19:00:00 11.5 3 Noroeste 9 Sudoeste 0 -- -- 76
2021-02-13 18:00:00 13.3 6 Oeste 17 Noroeste 0 -- -- 70
2021-02-13 17:00:00 12.9 10 Oeste 21 Oeste 0 -- -- 73
2021-02-13 16:00:00 13.4 11 Oeste 17 Oeste 0 -- -- 73
2021-02-13 15:00:00 12.4 11 Oeste 21 Oeste 0 -- -- 72
2021-02-13 14:00:00 11.3 14 Oeste 21 Oeste 0 -- -- 75
2021-02-13 13:00:00 10 11 Oeste 21 Oeste 0 -- -- 81
2021-02-13 08:00:00 -- -- -- -- -- -- -- -- --
2021-02-13 07:00:00 1.2 4 Oeste 9 Oeste 0 -- -- 94
2021-02-13 06:00:00 1.2 2 Sur 7 Sudoeste 0 -- -- 94
2021-02-13 05:00:00 1.9 0 Calma 8 Oeste 0 -- -- 94
2021-02-13 04:00:00 2 5 Oeste 8 Oeste 0 -- -- 92
2021-02-13 03:00:00 2.1 6 Oeste 9 Oeste 0 -- -- 92
2021-02-13 02:00:00 2.9 4 Oeste 8 Sudoeste 0 -- -- 92
2021-02-13 01:00:00 3.4 3 Oeste 5 Oeste 0 -- -- 91
2021-02-13 00:00:00 4 3 Oeste 9 Noroeste 0 -- -- 91
2021-02-12 23:00:00 4.6 5 Oeste 9 Sudoeste 0 -- -- 89
2021-02-12 22:00:00 5.1 5 Oeste 12 Sur 0 -- -- 88
2021-02-12 21:00:00 5.9 4 Sudoeste 14 Oeste 0 -- -- 84
2021-02-12 20:00:00 7.8 9 Sudoeste 17 Norte 0 -- -- 78
2021-02-12 19:00:00 10 8 Norte 18 Noroeste 0 -- -- 71
2021-02-12 18:00:00 12.2 12 Noroeste 30 Noroeste 0 -- -- 63
2021-02-12 17:00:00 13 22 Noroeste 35 Noroeste 0 -- -- 59
2021-02-12 16:00:00 13 23 Noroeste 35 Noroeste 0 -- -- 61
2021-02-12 15:00:00 12.6 23 Noroeste 35 Noroeste 0 -- -- 69
2021-02-12 14:00:00 11.9 23 Noroeste 33 Noroeste 0 -- -- 75
2021-02-12 13:00:00 10.5 21 Oeste 39 Oeste 0 -- -- 79
2021-02-12 12:00:00 10.4 25 Oeste 46 Oeste 0 -- -- 83
2021-02-12 11:00:00 9 27 Oeste 40 Oeste 0 -- -- 89
2021-02-12 10:00:00 7.8 20 Oeste 31 Oeste 0 -- -- 92
2021-02-12 09:00:00 6.6 16 Oeste 27 Oeste 0 -- -- 93
2021-02-12 08:00:00 7.3 15 Oeste 27 Oeste 0 -- -- 93
2021-02-12 07:00:00 7.7 18 Oeste 30 Sudoeste 0 -- -- 93
2021-02-12 06:00:00 8.8 17 Oeste 31 Oeste 0.6 -- -- 93
2021-02-12 05:00:00 9.3 21 Oeste 34 Oeste 0 -- -- 93
2021-02-12 04:00:00 9.4 17 Oeste 37 Sudoeste 0.2 -- -- 92
2021-02-12 03:00:00 9.6 20 Sudoeste 39 Oeste 1.4 -- -- 91
2021-02-12 02:00:00 10.1 28 Sudoeste 41 Sudoeste 2.2 -- -- 92
2021-02-12 01:00:00 10.5 23 Sudoeste 36 Sudoeste 0.2 -- -- 88
2021-02-12 00:00:00 10 15 Sudoeste 32 Sudoeste 0 -- -- 87
2021-02-11 23:00:00 10.1 16 Sudoeste 27 Sudoeste 0 -- -- 89
2021-02-11 22:00:00 10.5 14 Sudoeste 28 Sudoeste 0 -- -- 86
2021-02-11 21:00:00 10.9 14 Sudoeste 26 Sudoeste 0 -- -- 86
2021-02-11 20:00:00 11.5 14 Sudoeste 24 Oeste 0 -- -- 86
2021-02-11 19:00:00 12.2 12 Sudoeste 24 Sudoeste 0 -- -- 84
2021-02-11 18:00:00 12.8 19 Sudoeste 31 Sudoeste 0 -- -- 81
2021-02-11 17:00:00 13.8 19 Sudoeste 35 Sudoeste 0 -- -- 79
2021-02-11 16:00:00 14.1 19 Oeste 36 Oeste 0 -- -- 80
2021-02-11 15:00:00 13.5 24 Oeste 38 Oeste 0 -- -- 85
2021-02-11 14:00:00 12.9 18 Oeste 27 Oeste 0 -- -- 89
2021-02-11 13:00:00 11.9 10 Oeste 23 Oeste 0 -- -- 91
2021-02-11 12:00:00 11 14 Oeste 23 Oeste 0 -- -- 94
2021-02-11 11:00:00 10.3 13 Oeste 24 Oeste 0 -- -- 94
2021-02-11 10:00:00 9.8 11 Oeste 22 Oeste 0 -- -- 95
2021-02-11 09:00:00 9 10 Oeste 15 Oeste 0 -- -- 95
2021-02-11 08:00:00 8.8 9 Oeste 15 Oeste 0 -- -- 95
2021-02-11 07:00:00 8.5 10 Oeste 14 Sudoeste 0 -- -- 95
2021-02-11 06:00:00 8.1 8 Oeste 19 Oeste 0 -- -- 94
2021-02-11 05:00:00 7.3 8 Oeste 14 Oeste 0 -- -- 94
2021-02-11 04:00:00 6.8 6 Oeste 13 Oeste 0 -- -- 92
2021-02-11 03:00:00 6.5 6 Sudoeste 14 Sudoeste 0 -- -- 89
2021-02-11 02:00:00 6.4 10 Sudoeste 18 Sudoeste 0 -- -- 86
2021-02-11 01:00:00 6.7 12 Sudoeste 23 Oeste 0 -- -- 83
2021-02-11 00:00:00 7.1 14 Sudoeste 26 Oeste 0 -- -- 77
2021-02-10 23:00:00 6.6 12 Sudoeste 18 Sudoeste 0 -- -- 86
2021-02-10 22:00:00 5.9 5 Sudoeste 16 Oeste 0 -- -- 81
2021-02-10 21:00:00 6.3 8 Sudoeste 18 Oeste 0 -- -- 78
2021-02-10 20:00:00 7 10 Oeste 22 Oeste 0 -- -- 78
2021-02-10 19:00:00 8.3 13 Oeste 27 Oeste 0 -- -- 72
2021-02-10 18:00:00 9.3 15 Oeste 29 Oeste 0 -- -- 68
2021-02-10 17:00:00 10 22 Oeste 35 Oeste 0 -- -- 62
2021-02-10 16:00:00 10.4 21 Oeste 40 Oeste 0 -- -- 64
2021-02-10 15:00:00 9.9 22 Oeste 34 Sudoeste 0 -- -- 69
2021-02-10 14:00:00 9.2 21 Oeste 45 Oeste 0 -- -- 71
2021-02-10 13:00:00 7.8 19 Oeste 34 Oeste 0 -- -- 79
2021-02-10 12:00:00 6.7 21 Oeste 29 Oeste 0 -- -- 84
2021-02-10 11:00:00 5.5 17 Oeste 32 Oeste 0 -- -- 89
2021-02-10 10:00:00 4.2 10 Oeste 18 Oeste 0 -- -- 94
2021-02-10 09:00:00 2.2 0 Calma 18 Oeste 0 -- -- 95
2021-02-10 08:00:00 2.5 12 Oeste 27 Oeste 0 -- -- 94
2021-02-10 07:00:00 3 19 Oeste 27 Oeste 0 -- -- 95
2021-02-10 06:00:00 3.1 17 Oeste 27 Oeste 0 -- -- 94
2021-02-10 05:00:00 3.7 21 Oeste 34 Oeste 0 -- -- 92
2021-02-10 04:00:00 4.1 22 Oeste 46 Oeste 0 -- -- 93
2021-02-10 03:00:00 4.6 31 Oeste 65 Oeste 1 -- -- 93
2021-02-10 02:00:00 5 27 Sudoeste 39 Sudoeste 0 -- -- 92
2021-02-10 01:00:00 4.6 14 Sudoeste 37 Oeste 0 -- -- 93
2021-02-10 00:00:00 4.8 21 Oeste 35 Sudoeste 0 -- -- 93
2021-02-09 23:00:00 4.7 17 Oeste 32 Oeste 0 -- -- 92
2021-02-09 22:00:00 4.4 20 Sudoeste 36 Oeste 0 -- -- 92
2021-02-09 21:00:00 4.5 21 Oeste 38 Sudoeste 0.2 -- -- 91
2021-02-09 20:00:00 4 15 Sudoeste 32 Sudoeste 0.4 -- -- 92
2021-02-09 19:00:00 3.8 17 Sudoeste 34 Oeste 0 -- -- 91
2021-02-09 18:00:00 4.1 20 Oeste 36 Sudoeste 0.4 -- -- 90
2021-02-09 17:00:00 5.2 20 Oeste 44 Oeste 0 -- -- 84
2021-02-09 16:00:00 5.9 28 Oeste 47 Oeste 0 -- -- 84
2021-02-09 15:00:00 5.8 26 Sudoeste 38 Sudoeste 0 -- -- 91
2021-02-09 14:00:00 4.2 17 Oeste 48 Oeste 0.6 -- -- 92
2021-02-09 13:00:00 4.8 25 Oeste 56 Oeste 2.4 -- -- 92
2021-02-09 12:00:00 6.1 40 Oeste 62 Oeste 3.6 -- -- 91
2021-02-09 11:00:00 7.1 28 Sudoeste 50 Sudoeste 0.8 -- -- 91
2021-02-09 10:00:00 7.3 36 Sudoeste 55 Sudoeste 0.2 -- -- 89
2021-02-09 09:00:00 6.8 23 Sudoeste 50 Sudoeste 0 -- -- 90
2021-02-09 08:00:00 6.6 30 Sudoeste 48 Sudoeste 0 -- -- 89
2021-02-09 07:00:00 6.4 32 Sudoeste 52 Sudoeste 0 -- -- 90
2021-02-09 06:00:00 5.6 19 Sudoeste 46 Sudoeste 0 -- -- 92
2021-02-09 05:00:00 5.2 21 Sudoeste 41 Sur 0 -- -- 91
2021-02-09 04:00:00 4.9 18 Sudoeste 32 Sudoeste 0.2 -- -- 92
2021-02-09 03:00:00 4.9 19 Sudoeste 41 Oeste 0.8 -- -- 91
2021-02-09 02:00:00 5.5 20 Oeste 37 Sudoeste 0.6 -- -- 92
2021-02-09 01:00:00 5.7 17 Sudoeste 37 Oeste 0 -- -- 91
2021-02-09 00:00:00 5.9 22 Oeste 37 Sudoeste 0 -- -- 92
2021-02-08 23:00:00 5.9 21 Oeste 35 Oeste 0 -- -- 93
2021-02-08 22:00:00 5.5 17 Sudoeste 25 Oeste 0 -- -- 94
2021-02-08 21:00:00 5 14 Oeste 22 Oeste 0 -- -- 93
2021-02-08 20:00:00 5.2 10 Oeste 29 Oeste 0 -- -- 90
2021-02-08 19:00:00 5.8 18 Oeste 39 Oeste 0 -- -- 87
2021-02-08 18:00:00 6.7 24 Oeste 45 Oeste 0 -- -- 84
2021-02-08 17:00:00 7.2 29 Oeste 53 Oeste 0 -- -- 84
2021-02-08 16:00:00 6.6 30 Oeste 52 Oeste 0 -- -- 87
2021-02-08 15:00:00 6.8 25 Oeste 49 Oeste 0.2 -- -- 89
2021-02-08 14:00:00 7.6 28 Oeste 47 Oeste 0.2 -- -- 84
2021-02-08 13:00:00 7.9 31 Oeste 53 Oeste 0 -- -- 81
2021-02-08 12:00:00 6.9 33 Oeste 50 Oeste 0 -- -- 85
2021-02-08 11:00:00 5.6 23 Oeste 39 Oeste 0 -- -- 91
2021-02-08 10:00:00 5 25 Oeste 45 Sudoeste 0 -- -- 93
2021-02-08 09:00:00 4.5 24 Oeste 36 Oeste 0 -- -- 94
2021-02-08 08:00:00 4 17 Oeste 30 Oeste 0 -- -- 93
2021-02-08 07:00:00 4.4 13 Sudoeste 32 Oeste 0 -- -- 92
2021-02-08 06:00:00 5.4 19 Oeste 29 Sudoeste 0 -- -- 92
2021-02-08 05:00:00 6.1 19 Oeste 36 Oeste 0 -- -- 92
2021-02-08 04:00:00 6.1 18 Oeste 36 Sudoeste 0 -- -- 91
2021-02-08 03:00:00 6.4 23 Oeste 35 Sudoeste 0 -- -- 92
2021-02-08 02:00:00 6 22 Sudoeste 38 Sudoeste 0.2 -- -- 93
2021-02-08 01:00:00 5.7 18 Sudoeste 30 Sudoeste 0.2 -- -- 94
2021-02-08 00:00:00 5.3 20 Sudoeste 30 Sudoeste 0 -- -- 94
2021-02-07 23:00:00 5 19 Sudoeste 29 Sudoeste 0 -- -- 94
2021-02-07 22:00:00 4.9 20 Sudoeste 32 Oeste 0 -- -- 94
2021-02-07 21:00:00 4.4 18 Sudoeste 35 Sudoeste 0 -- -- 93
2021-02-07 20:00:00 4.2 21 Oeste 33 Oeste 0 -- -- 93
2021-02-07 19:00:00 4 21 Oeste 36 Oeste 0.2 -- -- 93
2021-02-07 18:00:00 3.9 25 Oeste 39 Sudoeste 0.4 -- -- 91
2021-02-07 17:00:00 4 24 Oeste 40 Oeste 0.4 -- -- 89
2021-02-07 16:00:00 4.7 27 Oeste 43 Oeste 0 -- -- 81
2021-02-07 15:00:00 6.3 24 Oeste 35 Oeste 0 -- -- 78
2021-02-07 14:00:00 5.9 18 Oeste 29 Oeste 0 -- -- 77
2021-02-07 13:00:00 5.5 14 Oeste 22 Oeste 0 -- -- 77
2021-02-07 12:00:00 5 13 Oeste 18 Oeste 0 -- -- 77
2021-02-07 11:00:00 3.9 6 Oeste 11 Oeste 0 -- -- 87
2021-02-07 10:00:00 2.3 6 Oeste 9 Oeste 0 -- -- 94
2021-02-07 09:00:00 1 3 Sur 4 Sur 0 -- -- 94
2021-02-07 08:00:00 1.2 0 Calma 4 Noroeste 0 -- -- 93
2021-02-07 07:00:00 1.6 3 Sur 7 Noroeste 0 -- -- 92
2021-02-07 06:00:00 1.9 0 Calma 4 Este 0 -- -- 92
2021-02-07 05:00:00 2.4 0 Calma 6 Oeste 0 -- -- 93
2021-02-07 04:00:00 2.7 4 Norte 6 Oeste 0 -- -- 94
2021-02-07 03:00:00 2.8 2 Este 10 Oeste 0 -- -- 92
2021-02-07 02:00:00 3.1 4 Nordeste 8 Nordeste 0 -- -- 90
2021-02-07 01:00:00 3.8 5 Norte 9 Norte 0 -- -- 88
2021-02-07 00:00:00 4.4 3 Norte 14 Este 0 -- -- 86
2021-02-06 23:00:00 4.5 6 Este 17 Este 0 -- -- 88
2021-02-06 22:00:00 5 9 Este 15 Este 0 -- -- 87
2021-02-06 21:00:00 5.4 6 Este 11 Este 0 -- -- 89
2021-02-06 20:00:00 5.6 4 Nordeste 11 Este 0 -- -- 89
2021-02-06 19:00:00 5.9 5 Este 15 Este 0 -- -- 89
2021-02-06 18:00:00 6.2 8 Este 17 Nordeste 0 -- -- 88
2021-02-06 17:00:00 6.5 11 Este 22 Este 0 -- -- 86
2021-02-06 16:00:00 6.4 10 Este 27 Este 0 -- -- 87
2021-02-06 15:00:00 6.5 13 Este 26 Nordeste 0.2 -- -- 87
2021-02-06 14:00:00 6.7 13 Este 26 Este 0 -- -- 86
2021-02-06 13:00:00 6.4 14 Este 24 Este 0 -- -- 89
2021-02-06 12:00:00 5.9 14 Este 26 Este 0 -- -- 92
2021-02-06 11:00:00 5.6 13 Este 29 Este 0.6 -- -- 93
2021-02-06 10:00:00 5.6 13 Este 28 Este 1 -- -- 92
2021-02-06 09:00:00 5.7 19 Este 40 Este 1 -- -- 91
2021-02-06 08:00:00 6.3 19 Este 37 Este 0.4 -- -- 91
2021-02-06 07:00:00 7.1 15 Este 26 Este 0 -- -- 92
2021-02-06 06:00:00 7.7 12 Este 21 Este 0 -- -- 93
2021-02-06 05:00:00 8 9 Este 16 Este 0 -- -- 92
2021-02-06 04:00:00 8 4 Este 15 Este 0 -- -- 90
2021-02-06 03:00:00 8.3 9 Este 19 Este 0 -- -- 88
2021-02-06 02:00:00 8.4 8 Este 28 Sudeste 0 -- -- 88
2021-02-06 01:00:00 8.5 11 Sudeste 22 Sudeste 0.6 -- -- 90
2021-02-06 00:00:00 8.2 13 Este 33 Este 0 -- -- 91
2021-02-05 23:00:00 8.3 14 Este 33 Este 0 -- -- 90
2021-02-05 22:00:00 8.4 7 Este 33 Este 0 -- -- 89
2021-02-05 21:00:00 9 24 Este 47 Este 0 -- -- 87
2021-02-05 20:00:00 9.2 23 Este 42 Este 0 -- -- 87
2021-02-05 19:00:00 10.1 22 Este 55 Este 0 -- -- 84
2021-02-05 18:00:00 11.2 11 Este 27 Este 0 -- -- 82
2021-02-05 17:00:00 12 13 Nordeste 25 Este 0 -- -- 78
2021-02-05 16:00:00 11.9 9 Nordeste 17 Nordeste 0 -- -- 81
2021-02-05 15:00:00 11.5 9 Nordeste 19 Este 0 -- -- 81
2021-02-05 14:00:00 11.2 12 Nordeste 22 Este 0 -- -- 83
2021-02-05 13:00:00 10.1 8 Nordeste 14 Nordeste 0 -- -- 88
2021-02-05 12:00:00 9.3 7 Sudeste 14 Sudeste 0 -- -- 95
2021-02-05 11:00:00 7.5 7 Sudeste 13 Sudeste 0.4 -- -- 96
2021-02-05 10:00:00 6 6 Sudeste 11 Sudeste 0.6 -- -- 96
2021-02-05 09:00:00 5.6 8 Nordeste 14 Nordeste 0.4 -- -- 96
2021-02-05 08:00:00 5.5 6 Nordeste 15 Nordeste 0 -- -- 96
2021-02-05 07:00:00 5.4 7 Nordeste 21 Este 0.2 -- -- 96
2021-02-05 06:00:00 5.4 10 Nordeste 19 Nordeste 0.2 -- -- 96
2021-02-05 05:00:00 5.4 8 Este 16 Este 1.6 -- -- 96
2021-02-05 04:00:00 5.2 5 Nordeste 13 Nordeste 0 -- -- 96
2021-02-05 03:00:00 5.2 8 Norte 17 Este 0.8 -- -- 96
2021-02-05 02:00:00 4.9 10 Nordeste 18 Nordeste 0.4 -- -- 96
2021-02-05 01:00:00 4.2 2 Sudeste 13 Este 0 -- -- 95
2021-02-05 00:00:00 5.2 5 Nordeste 10 Este 0.2 -- -- 95
2021-02-04 23:00:00 5.5 4 Noroeste 9 Noroeste 0 -- -- 94
2021-02-04 22:00:00 5.5 5 Sudeste 14 Sudeste 0 -- -- 94
2021-02-04 21:00:00 5.4 3 Nordeste 13 Sudeste 0 -- -- 94
2021-02-04 20:00:00 5.5 6 Sudeste 13 Sudeste 0.2 -- -- 94
2021-02-04 19:00:00 5.5 3 Sudeste 9 Sur 0.4 -- -- 93
2021-02-04 18:00:00 5.7 5 Sudeste 9 Sudeste 0.4 -- -- 92
2021-02-04 17:00:00 6 2 Este 13 Este 0.2 -- -- 92
2021-02-04 16:00:00 5.7 7 Este 13 Este 1.8 -- -- 92
2021-02-04 15:00:00 5.7 6 Nordeste 13 Nordeste 2.6 -- -- 92
2021-02-04 14:00:00 5.9 9 Noroeste 13 Norte 2.4 -- -- 91
2021-02-04 13:00:00 6.5 4 Norte 13 Noroeste 1.4 -- -- 90
2021-02-04 12:00:00 7.1 7 Norte 11 Norte 1 -- -- 92
2021-02-04 11:00:00 7.4 5 Sudeste 10 Sur 1.2 -- -- 95
2021-02-04 10:00:00 7 4 Este 6 Nordeste 0.6 -- -- 95
2021-02-04 09:00:00 6.5 0 Calma 4 Sudeste 0.4 -- -- 94
2021-02-04 08:00:00 6.2 0 Calma 6 Sudoeste 0 -- -- 93
2021-02-04 07:00:00 6.4 0 Calma 6 Sudoeste 0 -- -- 91
2021-02-04 06:00:00 7.2 5 Sudoeste 11 Sudoeste 0 -- -- 91
2021-02-04 05:00:00 7.7 5 Sudoeste 11 Sudoeste 0 -- -- 91
2021-02-04 04:00:00 7.9 5 Sudoeste 11 Sudoeste 0 -- -- 91
2021-02-04 03:00:00 8.1 6 Sudoeste 20 Sudoeste 0 -- -- 90
2021-02-04 02:00:00 8.3 12 Sudoeste 20 Sudoeste 0 -- -- 90
2021-02-04 01:00:00 8.3 12 Sudoeste 23 Sudoeste 0 -- -- 90
2021-02-04 00:00:00 7.8 9 Sudoeste 24 Sudoeste 0 -- -- 89